createdAt,value
2017-04-30T00:00:31.101Z,68.41
2017-04-30T00:01:32.524Z,68.70
2017-04-30T00:02:33.946Z,68.89
2017-04-30T00:03:35.368Z,68.70
2017-04-30T00:04:36.788Z,69.36
2017-04-30T00:05:38.217Z,68.89
2017-04-30T00:06:39.642Z,68.41
2017-04-30T00:07:41.790Z,68.23
2017-04-30T00:08:43.216Z,68.04
2017-04-30T00:09:44.647Z,68.04
2017-04-30T00:10:46.070Z,68.51
2017-04-30T00:11:47.487Z,68.41
2017-04-30T00:12:48.902Z,69.08
2017-04-30T00:13:50.324Z,68.89
2017-04-30T00:14:51.749Z,68.79
2017-04-30T00:15:53.170Z,69.08
2017-04-30T00:16:54.593Z,70.03
2017-04-30T00:17:56.016Z,70.03
2017-04-30T00:18:57.445Z,69.46
2017-04-30T00:19:58.867Z,69.23
2017-04-30T00:21:00.285Z,69.74
2017-04-30T00:22:01.705Z,69.74
2017-04-30T00:23:03.130Z,69.36
2017-04-30T00:24:04.549Z,68.60
2017-04-30T00:25:05.978Z,68.41
2017-04-30T00:26:07.393Z,67.85
2017-04-30T00:27:08.814Z,67.08
2017-04-30T00:28:10.237Z,68.79
2017-04-30T00:29:11.659Z,67.65
2017-04-30T00:30:13.074Z,67.46
2017-04-30T00:31:14.493Z,66.23
2017-04-30T00:32:15.915Z,65.95
2017-04-30T00:33:17.336Z,66.71
2017-04-30T00:34:18.793Z,67.18
2017-04-30T00:35:20.211Z,67.56
2017-04-30T00:36:21.639Z,67.75
2017-04-30T00:37:23.068Z,68.04
2017-04-30T00:38:24.492Z,67.85
2017-04-30T00:39:25.912Z,68.60
2017-04-30T00:40:27.415Z,68.41
2017-04-30T00:41:28.880Z,68.51
2017-04-30T00:42:30.298Z,68.04
2017-04-30T00:43:31.717Z,67.75
2017-04-30T00:44:33.151Z,67.85
2017-04-30T00:45:34.662Z,67.37
2017-04-30T00:46:36.111Z,68.98
2017-04-30T00:47:37.494Z,68.79
2017-04-30T00:48:38.914Z,68.79
2017-04-30T00:49:40.341Z,68.60
2017-04-30T00:50:41.767Z,69.46
2017-04-30T00:51:43.187Z,69.80
2017-04-30T00:52:44.699Z,68.95
2017-04-30T00:53:46.117Z,68.85
2017-04-30T00:54:47.538Z,68.85
2017-04-30T00:55:49.758Z,68.48
2017-04-30T00:56:50.322Z,68.98
2017-04-30T00:57:51.744Z,69.17
2017-04-30T00:58:53.169Z,69.61
2017-04-30T00:59:54.594Z,69.42
2017-04-30T01:00:56.017Z,68.98
2017-04-30T01:01:57.438Z,68.85
2017-04-30T01:02:58.882Z,69.23
2017-04-30T01:04:00.302Z,69.46
2017-04-30T01:05:01.725Z,68.38
2017-04-30T01:06:03.147Z,68.89
2017-04-30T01:07:04.569Z,68.57
2017-04-30T01:08:05.985Z,68.51
2017-04-30T01:09:07.401Z,67.94
2017-04-30T01:10:08.829Z,67.85
2017-04-30T01:11:10.248Z,68.13
2017-04-30T01:12:11.669Z,68.32
2017-04-30T01:13:13.089Z,68.60
2017-04-30T01:14:14.508Z,68.60
2017-04-30T01:15:15.937Z,67.62
2017-04-30T01:16:17.348Z,67.81
2017-04-30T01:17:18.769Z,68.00
2017-04-30T01:18:20.196Z,67.46
2017-04-30T01:19:21.636Z,67.14
2017-04-30T01:20:23.058Z,67.62
2017-04-30T01:21:24.477Z,68.48
2017-04-30T01:22:25.897Z,67.81
2017-04-30T01:23:27.317Z,67.71
2017-04-30T01:24:29.521Z,68.57
2017-04-30T01:25:30.947Z,68.76
2017-04-30T01:26:32.371Z,69.04
2017-04-30T01:27:33.789Z,68.95
2017-04-30T01:28:35.224Z,69.04
2017-04-30T01:29:36.648Z,69.61
2017-04-30T01:30:38.079Z,68.95
2017-04-30T01:31:39.496Z,68.66
2017-04-30T01:32:40.912Z,68.85
2017-04-30T01:33:42.331Z,68.57
2017-04-30T01:34:43.753Z,68.48
2017-04-30T01:35:45.657Z,68.57
2017-04-30T01:36:47.652Z,69.04
2017-04-30T01:37:49.079Z,68.66
2017-04-30T01:38:50.499Z,68.29
2017-04-30T01:39:51.914Z,68.85
2017-04-30T01:40:53.333Z,68.57
2017-04-30T01:41:54.780Z,68.57
2017-04-30T01:42:56.172Z,68.85
2017-04-30T01:43:57.592Z,68.95
2017-04-30T01:44:59.012Z,67.81
2017-04-30T01:46:00.425Z,67.75
2017-04-30T01:47:01.855Z,67.81
2017-04-30T01:48:03.275Z,67.52
2017-04-30T01:49:04.704Z,67.90
2017-04-30T01:50:06.127Z,68.10
2017-04-30T01:51:07.545Z,68.57
2017-04-30T01:52:08.969Z,68.85
2017-04-30T01:53:10.386Z,68.29
2017-04-30T01:54:11.808Z,67.90
2017-04-30T01:55:13.230Z,67.62
2017-04-30T01:56:14.645Z,68.19
2017-04-30T01:57:16.066Z,67.90
2017-04-30T01:58:17.485Z,67.71
2017-04-30T01:59:18.915Z,68.60
2017-04-30T02:00:20.329Z,68.29
2017-04-30T02:01:21.746Z,68.04
2017-04-30T02:02:23.171Z,68.79
2017-04-30T02:03:24.596Z,68.95
2017-04-30T02:04:26.710Z,68.76
2017-04-30T02:05:28.126Z,68.29
2017-04-30T02:06:30.282Z,68.79
2017-04-30T02:07:30.906Z,68.95
2017-04-30T02:08:32.330Z,67.81
2017-04-30T02:09:33.748Z,68.19
2017-04-30T02:10:35.163Z,68.76
2017-04-30T02:11:36.586Z,68.76
2017-04-30T02:12:38.006Z,68.19
2017-04-30T02:13:39.426Z,68.51
2017-04-30T02:14:40.846Z,67.85
2017-04-30T02:15:42.268Z,68.85
2017-04-30T02:16:43.683Z,68.76
2017-04-30T02:17:45.098Z,68.29
2017-04-30T02:18:47.071Z,68.66
2017-04-30T02:19:48.497Z,68.95
2017-04-30T02:20:49.928Z,68.48
2017-04-30T02:21:51.338Z,68.95
2017-04-30T02:22:52.856Z,69.52
2017-04-30T02:23:54.276Z,68.85
2017-04-30T02:24:55.699Z,68.85
2017-04-30T02:25:57.120Z,68.48
2017-04-30T02:26:58.540Z,68.57
2017-04-30T02:27:59.964Z,68.95
2017-04-30T02:29:01.384Z,68.66
2017-04-30T02:30:02.815Z,68.95
2017-04-30T02:31:04.236Z,68.95
2017-04-30T02:32:05.669Z,68.85
2017-04-30T02:33:07.090Z,68.76
2017-04-30T02:34:08.511Z,67.81
2017-04-30T02:35:09.929Z,67.90
2017-04-30T02:36:11.358Z,68.10
2017-04-30T02:37:12.770Z,67.05
2017-04-30T02:38:14.781Z,68.00
2017-04-30T02:39:16.231Z,68.48
2017-04-30T02:40:17.647Z,69.99
2017-04-30T02:41:19.063Z,69.42
2017-04-30T02:42:20.482Z,68.66
2017-04-30T02:43:21.903Z,68.85
2017-04-30T02:44:23.316Z,68.95
2017-04-30T02:45:24.732Z,68.95
2017-04-30T02:46:26.155Z,69.42
2017-04-30T02:47:27.582Z,68.66
2017-04-30T02:48:29.004Z,68.76
2017-04-30T02:49:30.430Z,68.95
2017-04-30T02:50:31.851Z,69.13
2017-04-30T02:51:33.269Z,69.04
2017-04-30T02:52:34.702Z,69.99
2017-04-30T02:53:36.120Z,69.80
2017-04-30T02:54:37.538Z,68.76
2017-04-30T02:55:38.966Z,68.95
2017-04-30T02:56:40.391Z,68.76
2017-04-30T02:57:41.807Z,68.95
2017-04-30T02:58:43.231Z,68.95
2017-04-30T02:59:44.649Z,68.85
2017-04-30T03:00:46.074Z,68.95
2017-04-30T03:01:47.496Z,70.28
2017-04-30T03:02:48.918Z,69.71
2017-04-30T03:03:50.340Z,69.96
2017-04-30T03:04:51.757Z,70.05
2017-04-30T03:05:53.181Z,70.90
2017-04-30T03:06:54.601Z,70.72
2017-04-30T03:07:56.019Z,71.66
2017-04-30T03:08:57.444Z,71.66
2017-04-30T03:09:58.857Z,70.62
2017-04-30T03:11:00.277Z,70.34
2017-04-30T03:12:01.701Z,70.34
2017-04-30T03:13:03.120Z,70.62
2017-04-30T03:14:04.536Z,71.19
2017-04-30T03:15:05.954Z,70.47
2017-04-30T03:16:07.380Z,70.24
2017-04-30T03:17:08.800Z,69.96
2017-04-30T03:18:10.220Z,69.90
2017-04-30T03:19:11.639Z,70.43
2017-04-30T03:20:13.063Z,71.57
2017-04-30T03:21:14.477Z,72.23
2017-04-30T03:22:15.882Z,72.89
2017-04-30T03:23:17.305Z,72.71
2017-04-30T03:24:18.723Z,72.71
2017-04-30T03:25:20.172Z,72.33
2017-04-30T03:26:21.560Z,71.95
2017-04-30T03:27:22.975Z,72.23
2017-04-30T03:28:24.399Z,72.61
2017-04-30T03:29:25.818Z,72.80
2017-04-30T03:30:27.235Z,73.08
2017-04-30T03:31:28.657Z,73.18
2017-04-30T03:32:30.086Z,73.65
2017-04-30T03:33:31.505Z,74.69
2017-04-30T03:34:32.921Z,73.56
2017-04-30T03:35:34.348Z,73.37
2017-04-30T03:36:36.651Z,73.94
2017-04-30T03:37:38.071Z,73.75
2017-04-30T03:38:39.485Z,73.75
2017-04-30T03:39:40.905Z,73.75
2017-04-30T03:40:42.328Z,73.65
2017-04-30T03:41:43.747Z,73.94
2017-04-30T03:42:45.166Z,73.46
2017-04-30T03:43:46.591Z,73.94
2017-04-30T03:44:48.007Z,74.22
2017-04-30T03:45:49.431Z,74.03
2017-04-30T03:46:50.850Z,73.94
2017-04-30T03:47:52.267Z,73.94
2017-04-30T03:48:53.694Z,73.27
2017-04-30T03:49:55.115Z,73.27
2017-04-30T03:50:56.550Z,72.99
2017-04-30T03:51:57.973Z,73.56
2017-04-30T03:52:59.388Z,73.56
2017-04-30T03:54:00.812Z,73.84
2017-04-30T03:55:02.234Z,73.18
2017-04-30T03:56:03.649Z,73.37
2017-04-30T03:57:05.073Z,73.56
2017-04-30T03:58:06.486Z,73.84
2017-04-30T03:59:07.909Z,73.27
2017-04-30T04:00:09.327Z,72.80
2017-04-30T04:01:10.750Z,72.61
2017-04-30T04:02:12.167Z,72.89
2017-04-30T04:03:13.594Z,72.89
2017-04-30T04:04:15.010Z,72.61
2017-04-30T04:05:16.442Z,72.42
2017-04-30T04:06:17.911Z,72.14
2017-04-30T04:07:19.339Z,72.71
2017-04-30T04:08:20.764Z,72.99
2017-04-30T04:09:22.858Z,73.27
2017-04-30T04:10:24.818Z,73.18
2017-04-30T04:11:26.235Z,73.94
2017-04-30T04:12:27.659Z,73.56
2017-04-30T04:13:29.074Z,73.65
2017-04-30T04:14:30.498Z,73.56
2017-04-30T04:15:31.927Z,73.94
2017-04-30T04:16:33.358Z,73.94
2017-04-30T04:17:34.770Z,73.08
2017-04-30T04:18:36.197Z,73.84
2017-04-30T04:19:37.616Z,73.27
2017-04-30T04:20:39.045Z,73.65
2017-04-30T04:21:40.468Z,73.27
2017-04-30T04:22:41.888Z,73.27
2017-04-30T04:23:43.350Z,72.33
2017-04-30T04:24:44.737Z,72.04
2017-04-30T04:25:46.160Z,72.71
2017-04-30T04:26:47.578Z,72.80
2017-04-30T04:27:49.001Z,73.08
2017-04-30T04:28:50.430Z,72.99
2017-04-30T04:29:52.487Z,72.99
2017-04-30T04:30:53.911Z,72.89
2017-04-30T04:31:55.333Z,73.08
2017-04-30T04:32:56.752Z,72.99
2017-04-30T04:33:58.178Z,72.89
2017-04-30T04:34:59.601Z,72.71
2017-04-30T04:36:01.025Z,72.89
2017-04-30T04:37:02.452Z,72.52
2017-04-30T04:38:03.870Z,72.99
2017-04-30T04:39:05.297Z,72.80
2017-04-30T04:40:06.724Z,73.27
2017-04-30T04:41:08.147Z,72.42
2017-04-30T04:42:09.573Z,72.52
2017-04-30T04:43:11.000Z,72.99
2017-04-30T04:44:12.414Z,72.99
2017-04-30T04:45:13.844Z,73.18
2017-04-30T04:46:15.274Z,73.84
2017-04-30T04:47:16.706Z,73.75
2017-04-30T04:48:18.140Z,73.37
2017-04-30T04:49:19.560Z,72.71
2017-04-30T04:50:20.994Z,72.33
2017-04-30T04:51:22.419Z,71.60
2017-04-30T04:52:23.846Z,71.98
2017-04-30T04:53:25.268Z,71.70
2017-04-30T04:54:26.694Z,71.80
2017-04-30T04:55:28.113Z,71.51
2017-04-30T04:56:29.540Z,71.41
2017-04-30T04:57:30.954Z,70.94
2017-04-30T04:58:32.374Z,70.94
2017-04-30T04:59:33.798Z,70.56
2017-04-30T05:00:35.221Z,70.65
2017-04-30T05:01:37.278Z,70.84
2017-04-30T05:02:38.699Z,71.22
2017-04-30T05:03:40.125Z,71.13
2017-04-30T05:04:41.563Z,71.32
2017-04-30T05:05:42.985Z,71.41
2017-04-30T05:06:44.410Z,70.65
2017-04-30T05:07:45.832Z,70.47
2017-04-30T05:08:47.259Z,70.65
2017-04-30T05:09:48.678Z,70.50
2017-04-30T05:10:50.105Z,69.74
2017-04-30T05:11:51.524Z,68.70
2017-04-30T05:12:52.948Z,68.70
2017-04-30T05:13:54.368Z,69.17
2017-04-30T05:14:55.791Z,68.98
2017-04-30T05:15:57.221Z,69.08
2017-04-30T05:16:58.644Z,69.08
2017-04-30T05:18:00.069Z,69.08
2017-04-30T05:19:01.503Z,69.08
2017-04-30T05:20:02.930Z,68.51
2017-04-30T05:21:04.350Z,68.92
2017-04-30T05:22:05.774Z,68.26
2017-04-30T05:23:07.197Z,66.55
2017-04-30T05:24:08.620Z,66.27
2017-04-30T05:25:10.042Z,67.02
2017-04-30T05:26:11.501Z,67.79
2017-04-30T05:27:12.890Z,67.59
2017-04-30T05:28:14.321Z,67.12
2017-04-30T05:29:15.744Z,66.36
2017-04-30T05:30:17.175Z,66.27
2017-04-30T05:31:18.592Z,65.22
2017-04-30T05:32:20.023Z,63.60
2017-04-30T05:33:21.442Z,64.65
2017-04-30T05:34:22.867Z,64.75
2017-04-30T05:35:24.292Z,64.75
2017-04-30T05:36:25.714Z,64.59
2017-04-30T05:37:27.165Z,65.25
2017-04-30T05:38:28.592Z,66.30
2017-04-30T05:39:30.022Z,65.16
2017-04-30T05:40:31.446Z,65.44
2017-04-30T05:41:32.878Z,65.73
2017-04-30T05:42:34.989Z,66.11
2017-04-30T05:43:36.414Z,66.11
2017-04-30T05:44:37.839Z,65.82
2017-04-30T05:45:39.262Z,65.92
2017-04-30T05:46:40.687Z,64.78
2017-04-30T05:47:42.115Z,64.11
2017-04-30T05:48:43.543Z,64.30
2017-04-30T05:49:44.974Z,64.49
2017-04-30T05:50:46.393Z,63.45
2017-04-30T05:51:47.814Z,64.30
2017-04-30T05:52:49.244Z,64.87
2017-04-30T05:53:50.668Z,63.95
2017-04-30T05:54:52.083Z,64.62
2017-04-30T05:55:53.516Z,64.43
2017-04-30T05:56:54.943Z,65.19
2017-04-30T05:57:56.369Z,65.19
2017-04-30T05:58:57.786Z,64.05
2017-04-30T05:59:59.211Z,64.14
2017-04-30T06:01:00.632Z,63.86
2017-04-30T06:02:02.058Z,64.24
2017-04-30T06:03:03.507Z,64.34
2017-04-30T06:04:04.930Z,65.76
2017-04-30T06:05:06.352Z,65.19
2017-04-30T06:06:07.784Z,65.47
2017-04-30T06:07:09.209Z,65.38
2017-04-30T06:08:10.632Z,63.95
2017-04-30T06:09:12.052Z,63.39
2017-04-30T06:10:13.482Z,63.95
2017-04-30T06:11:14.907Z,63.95
2017-04-30T06:12:16.339Z,63.76
2017-04-30T06:13:17.761Z,64.56
2017-04-30T06:14:19.193Z,63.76
2017-04-30T06:15:20.632Z,64.65
2017-04-30T06:16:22.053Z,64.24
2017-04-30T06:17:23.480Z,64.24
2017-04-30T06:18:24.907Z,64.72
2017-04-30T06:19:26.333Z,65.00
2017-04-30T06:20:27.752Z,64.56
2017-04-30T06:21:29.172Z,64.56
2017-04-30T06:22:30.600Z,64.65
2017-04-30T06:23:32.029Z,65.13
2017-04-30T06:24:33.455Z,64.84
2017-04-30T06:25:34.869Z,64.08
2017-04-30T06:26:36.289Z,63.79
2017-04-30T06:27:37.729Z,63.60
2017-04-30T06:28:39.162Z,63.54
2017-04-30T06:29:40.590Z,63.99
2017-04-30T06:30:42.019Z,63.60
2017-04-30T06:31:43.443Z,64.08
2017-04-30T06:32:44.870Z,63.70
2017-04-30T06:33:46.300Z,62.97
2017-04-30T06:34:47.740Z,62.69
2017-04-30T06:35:49.173Z,61.45
2017-04-30T06:36:50.599Z,61.74
2017-04-30T06:37:52.026Z,62.88
2017-04-30T06:38:53.455Z,62.21
2017-04-30T06:39:54.876Z,61.83
2017-04-30T06:40:56.304Z,60.69
2017-04-30T06:41:57.733Z,61.55
2017-04-30T06:42:59.164Z,61.48
2017-04-30T06:44:00.587Z,60.82
2017-04-30T06:45:02.013Z,61.96
2017-04-30T06:46:03.439Z,60.63
2017-04-30T06:47:04.870Z,60.05
2017-04-30T06:48:06.296Z,60.44
2017-04-30T06:49:07.724Z,59.20
2017-04-30T06:50:09.152Z,59.86
2017-04-30T06:51:10.582Z,58.81
2017-04-30T06:52:12.009Z,59.96
2017-04-30T06:53:13.435Z,58.94
2017-04-30T06:54:14.886Z,59.13
2017-04-30T06:55:16.294Z,59.23
2017-04-30T06:56:17.720Z,60.08
2017-04-30T06:57:19.143Z,60.18
2017-04-30T06:58:20.576Z,61.29
2017-04-30T06:59:22.000Z,60.85
2017-04-30T07:00:23.440Z,60.46
2017-04-30T07:01:24.863Z,58.56
2017-04-30T07:02:26.293Z,57.16
2017-04-30T07:03:27.723Z,58.75
2017-04-30T07:04:29.152Z,56.68
2017-04-30T07:05:30.616Z,58.28
2017-04-30T07:06:32.012Z,57.45
2017-04-30T07:07:34.336Z,56.87
2017-04-30T07:08:35.774Z,56.11
2017-04-30T07:09:37.197Z,55.07
2017-04-30T07:10:38.680Z,57.64
2017-04-30T07:11:40.110Z,55.35
2017-04-30T07:12:41.533Z,54.78
2017-04-30T07:13:42.970Z,53.85
2017-04-30T07:14:44.406Z,53.85
2017-04-30T07:15:45.831Z,55.54
2017-04-30T07:16:47.265Z,54.52
2017-04-30T07:17:48.739Z,54.71
2017-04-30T07:18:50.165Z,53.95
2017-04-30T07:19:51.612Z,54.24
2017-04-30T07:20:53.028Z,55.09
2017-04-30T07:21:54.986Z,54.52
2017-04-30T07:22:56.419Z,53.28
2017-04-30T07:23:57.844Z,52.90
2017-04-30T07:24:59.274Z,52.36
2017-04-30T07:26:00.704Z,53.21
2017-04-30T07:27:03.068Z,52.36
2017-04-30T07:28:04.501Z,54.07
2017-04-30T07:29:05.930Z,52.73
2017-04-30T07:30:07.369Z,54.45
2017-04-30T07:31:08.800Z,53.97
2017-04-30T07:32:10.230Z,51.21
2017-04-30T07:33:11.664Z,51.50
2017-04-30T07:34:13.880Z,53.21
2017-04-30T07:35:15.306Z,52.26
2017-04-30T07:36:16.767Z,51.40
2017-04-30T07:37:18.205Z,51.43
2017-04-30T07:38:19.634Z,50.92
2017-04-30T07:39:21.056Z,50.57
2017-04-30T07:40:22.490Z,51.23
2017-04-30T07:41:23.920Z,50.67
2017-04-30T07:42:25.361Z,51.33
2017-04-30T07:43:26.787Z,52.19
2017-04-30T07:44:28.214Z,52.09
2017-04-30T07:45:29.650Z,51.81
2017-04-30T07:46:31.103Z,52.19
2017-04-30T07:47:32.537Z,53.72
2017-04-30T07:48:33.979Z,51.81
2017-04-30T07:49:35.409Z,52.28
2017-04-30T07:50:36.876Z,51.62
2017-04-30T07:51:38.297Z,50.49
2017-04-30T07:52:39.730Z,51.54
2017-04-30T07:53:41.169Z,49.54
2017-04-30T07:54:42.671Z,48.88
2017-04-30T07:55:45.085Z,49.54
2017-04-30T07:56:46.513Z,47.63
2017-04-30T07:57:47.942Z,47.44
2017-04-30T07:58:49.379Z,48.02
2017-04-30T07:59:50.811Z,48.68
2017-04-30T08:00:52.239Z,48.78
2017-04-30T08:01:53.666Z,50.21
2017-04-30T08:02:55.098Z,50.69
2017-04-30T08:03:56.551Z,50.49
2017-04-30T08:04:57.978Z,52.12
2017-04-30T08:05:59.416Z,50.69
2017-04-30T08:07:00.845Z,50.78
2017-04-30T08:08:02.276Z,49.66
2017-04-30T08:09:03.749Z,50.14
2017-04-30T08:10:05.142Z,48.90
2017-04-30T08:11:06.572Z,49.95
2017-04-30T08:12:08.006Z,50.24
2017-04-30T08:13:09.432Z,48.04
2017-04-30T08:14:10.869Z,48.42
2017-04-30T08:15:12.297Z,46.92
2017-04-30T08:16:13.741Z,47.97
2017-04-30T08:17:15.168Z,47.78
2017-04-30T08:18:16.592Z,48.93
2017-04-30T08:19:18.023Z,47.87
2017-04-30T08:20:19.457Z,47.78
2017-04-30T08:21:20.890Z,47.49
2017-04-30T08:22:22.327Z,46.25
2017-04-30T08:23:23.768Z,46.06
2017-04-30T08:24:25.194Z,46.25
2017-04-30T08:25:26.632Z,48.25
2017-04-30T08:26:28.067Z,47.52
2017-04-30T08:27:29.494Z,46.17
2017-04-30T08:28:30.935Z,47.03
2017-04-30T08:29:32.373Z,45.22
2017-04-30T08:30:33.807Z,44.74
2017-04-30T08:31:35.237Z,43.79
2017-04-30T08:32:36.677Z,43.79
2017-04-30T08:33:38.100Z,45.98
2017-04-30T08:34:39.535Z,47.13
2017-04-30T08:35:40.966Z,45.31
2017-04-30T08:36:42.396Z,46.27
2017-04-30T08:37:43.836Z,45.79
2017-04-30T08:38:45.266Z,46.27
2017-04-30T08:39:46.697Z,46.27
2017-04-30T08:40:48.124Z,44.74
2017-04-30T08:41:49.552Z,45.53
2017-04-30T08:42:50.981Z,46.30
2017-04-30T08:43:52.419Z,44.95
2017-04-30T08:44:53.859Z,43.71
2017-04-30T08:45:55.285Z,43.04
2017-04-30T08:46:56.720Z,45.43
2017-04-30T08:47:58.147Z,44.00
2017-04-30T08:48:59.592Z,43.16
2017-04-30T08:50:01.024Z,44.69
2017-04-30T08:51:02.451Z,44.69
2017-04-30T08:52:03.887Z,44.12
2017-04-30T08:53:05.323Z,43.35
2017-04-30T08:54:06.755Z,42.20
2017-04-30T08:55:08.184Z,43.44
2017-04-30T08:56:09.623Z,42.77
2017-04-30T08:57:11.046Z,42.40
2017-04-30T08:58:12.482Z,42.68
2017-04-30T08:59:13.921Z,43.95
2017-04-30T09:00:15.362Z,43.16
2017-04-30T09:01:16.798Z,42.30
2017-04-30T09:02:18.844Z,43.06
2017-04-30T09:03:20.288Z,42.99
2017-04-30T09:04:21.724Z,43.76
2017-04-30T09:05:23.158Z,41.46
2017-04-30T09:06:24.591Z,41.84
2017-04-30T09:07:26.021Z,42.32
2017-04-30T09:08:27.449Z,42.13
2017-04-30T09:09:29.496Z,41.74
2017-04-30T09:10:30.922Z,41.07
2017-04-30T09:11:32.357Z,41.84
2017-04-30T09:12:33.788Z,40.90
2017-04-30T09:13:35.226Z,41.19
2017-04-30T09:14:36.672Z,41.19
2017-04-30T09:15:38.112Z,42.82
2017-04-30T09:16:39.541Z,41.77
2017-04-30T09:17:40.981Z,41.38
2017-04-30T09:18:42.409Z,41.11
2017-04-30T09:19:43.847Z,42.44
2017-04-30T09:20:45.300Z,41.60
2017-04-30T09:21:46.739Z,39.20
2017-04-30T09:22:48.174Z,40.52
2017-04-30T09:23:50.092Z,39.10
2017-04-30T09:24:51.528Z,39.39
2017-04-30T09:25:53.027Z,39.97
2017-04-30T09:26:54.434Z,40.44
2017-04-30T09:27:55.868Z,40.54
2017-04-30T09:28:57.303Z,38.70
2017-04-30T09:29:58.749Z,39.20
2017-04-30T09:31:00.178Z,37.78
2017-04-30T09:32:01.611Z,38.62
2017-04-30T09:33:03.057Z,39.01
2017-04-30T09:34:04.496Z,37.18
2017-04-30T09:35:05.933Z,37.85
2017-04-30T09:36:07.370Z,38.93
2017-04-30T09:37:08.805Z,37.97
2017-04-30T09:38:10.237Z,39.12
2017-04-30T09:39:11.675Z,38.66
2017-04-30T09:40:13.107Z,39.50
2017-04-30T09:41:14.536Z,37.68
2017-04-30T09:42:15.980Z,38.26
2017-04-30T09:43:17.417Z,37.89
2017-04-30T09:44:18.858Z,38.54
2017-04-30T09:45:20.297Z,39.03
2017-04-30T09:46:21.732Z,38.18
2017-04-30T09:47:23.167Z,37.80
2017-04-30T09:48:24.608Z,37.22
2017-04-30T09:49:26.050Z,37.13
2017-04-30T09:50:27.487Z,35.97
2017-04-30T09:51:28.919Z,33.96
2017-04-30T09:52:30.356Z,36.55
2017-04-30T09:53:31.787Z,36.74
2017-04-30T09:54:33.223Z,35.40
2017-04-30T09:55:34.659Z,36.07
2017-04-30T09:56:36.106Z,35.78
2017-04-30T09:57:37.542Z,37.41
2017-04-30T09:58:38.983Z,37.03
2017-04-30T09:59:40.427Z,38.28
2017-04-30T10:00:41.859Z,37.99
2017-04-30T10:01:43.335Z,38.85
2017-04-30T10:02:44.769Z,38.37
2017-04-30T10:03:46.213Z,36.55
2017-04-30T10:04:47.648Z,35.10
2017-04-30T10:05:49.083Z,36.05
2017-04-30T10:06:50.532Z,35.28
2017-04-30T10:07:51.969Z,34.92
2017-04-30T10:08:53.420Z,36.65
2017-04-30T10:09:54.855Z,36.26
2017-04-30T10:10:56.289Z,35.00
2017-04-30T10:11:57.728Z,34.82
2017-04-30T10:12:59.170Z,34.82
2017-04-30T10:14:00.603Z,35.71
2017-04-30T10:15:02.051Z,35.32
2017-04-30T10:16:03.504Z,36.88
2017-04-30T10:17:04.960Z,36.30
2017-04-30T10:18:06.393Z,34.09
2017-04-30T10:19:07.836Z,33.13
2017-04-30T10:20:09.291Z,33.90
2017-04-30T10:21:10.726Z,35.43
2017-04-30T10:22:12.182Z,34.95
2017-04-30T10:23:13.594Z,35.16
2017-04-30T10:24:15.026Z,35.64
2017-04-30T10:25:16.462Z,34.88
2017-04-30T10:26:17.899Z,33.53
2017-04-30T10:27:19.344Z,33.05
2017-04-30T10:28:20.781Z,33.15
2017-04-30T10:29:22.218Z,33.05
2017-04-30T10:30:23.653Z,32.38
2017-04-30T10:31:25.087Z,31.79
2017-04-30T10:32:26.533Z,30.14
2017-04-30T10:33:27.961Z,31.59
2017-04-30T10:34:29.403Z,32.84
2017-04-30T10:35:30.842Z,31.32
2017-04-30T10:36:32.277Z,32.09
2017-04-30T10:37:33.713Z,32.18
2017-04-30T10:38:35.150Z,29.79
2017-04-30T10:39:37.355Z,31.82
2017-04-30T10:40:38.784Z,32.30
2017-04-30T10:41:40.225Z,32.49
2017-04-30T10:42:41.657Z,31.53
2017-04-30T10:43:43.101Z,29.99
2017-04-30T10:44:44.535Z,30.29
2017-04-30T10:45:45.970Z,29.70
2017-04-30T10:46:47.413Z,28.66
2017-04-30T10:47:48.860Z,28.66
2017-04-30T10:48:50.290Z,27.98
2017-04-30T10:49:51.729Z,30.00
2017-04-30T10:50:53.215Z,31.75
2017-04-30T10:51:54.656Z,30.88
2017-04-30T10:52:56.095Z,29.25
2017-04-30T10:53:57.528Z,28.67
2017-04-30T10:54:58.965Z,28.09
2017-04-30T10:56:00.398Z,27.91
2017-04-30T10:57:01.834Z,29.54
2017-04-30T10:58:03.293Z,29.83
2017-04-30T10:59:04.736Z,28.77
2017-04-30T11:00:06.170Z,27.61
2017-04-30T11:01:07.614Z,29.63
2017-04-30T11:02:09.050Z,29.35
2017-04-30T11:03:10.497Z,31.27
2017-04-30T11:04:11.942Z,30.88
2017-04-30T11:05:13.382Z,31.95
2017-04-30T11:06:14.825Z,29.63
2017-04-30T11:07:16.268Z,31.26
2017-04-30T11:08:17.705Z,31.35
2017-04-30T11:09:19.153Z,28.86
2017-04-30T11:10:20.587Z,29.83
2017-04-30T11:11:22.026Z,28.77
2017-04-30T11:12:23.467Z,30.90
2017-04-30T11:13:24.913Z,30.61
2017-04-30T11:14:26.355Z,29.36
2017-04-30T11:15:27.789Z,30.22
2017-04-30T11:16:29.225Z,31.19
2017-04-30T11:17:30.662Z,27.24
2017-04-30T11:18:32.099Z,27.53
2017-04-30T11:19:33.540Z,27.92
2017-04-30T11:20:34.974Z,28.78
2017-04-30T11:21:36.414Z,28.78
2017-04-30T11:22:37.855Z,27.93
2017-04-30T11:23:39.287Z,28.40
2017-04-30T11:24:40.725Z,28.40
2017-04-30T11:25:42.170Z,28.88
2017-04-30T11:26:43.601Z,27.06
2017-04-30T11:27:45.036Z,26.67
2017-04-30T11:28:46.476Z,27.13
2017-04-30T11:29:47.910Z,26.76
2017-04-30T11:30:49.343Z,27.44
2017-04-30T11:31:50.775Z,27.05
2017-04-30T11:32:52.219Z,27.83
2017-04-30T11:33:53.651Z,29.17
2017-04-30T11:34:55.119Z,29.36
2017-04-30T11:35:56.560Z,29.95
2017-04-30T11:36:57.995Z,31.11
2017-04-30T11:37:59.443Z,28.23
2017-04-30T11:39:00.878Z,27.83
2017-04-30T11:40:02.321Z,27.55
2017-04-30T11:41:03.760Z,28.51
2017-04-30T11:42:05.228Z,26.31
2017-04-30T11:43:06.666Z,28.52
2017-04-30T11:44:08.102Z,28.23
2017-04-30T11:45:09.552Z,27.56
2017-04-30T11:46:11.013Z,29.39
2017-04-30T11:47:12.449Z,26.59
2017-04-30T11:48:13.889Z,27.94
2017-04-30T11:49:15.343Z,27.37
2017-04-30T11:50:16.787Z,25.92
2017-04-30T11:51:18.229Z,26.50
2017-04-30T11:52:19.670Z,25.92
2017-04-30T11:53:21.112Z,27.28
2017-04-30T11:54:22.548Z,26.22
2017-04-30T11:55:23.991Z,27.67
2017-04-30T11:56:25.427Z,29.31
2017-04-30T11:57:26.872Z,26.32
2017-04-30T11:58:28.308Z,25.04
2017-04-30T11:59:29.755Z,25.22
2017-04-30T12:00:31.191Z,26.10
2017-04-30T12:01:32.632Z,26.58
2017-04-30T12:02:34.072Z,26.00
2017-04-30T12:03:35.519Z,26.40
2017-04-30T12:04:36.955Z,27.08
2017-04-30T12:05:38.401Z,27.67
2017-04-30T12:06:39.829Z,26.21
2017-04-30T12:07:41.314Z,26.80
2017-04-30T12:08:42.760Z,24.49
2017-04-30T12:09:44.223Z,24.48
2017-04-30T12:10:45.657Z,25.63
2017-04-30T12:11:47.109Z,25.05
2017-04-30T12:12:48.550Z,26.59
2017-04-30T12:13:49.993Z,29.39
2017-04-30T12:14:51.425Z,29.47
2017-04-30T12:15:52.862Z,27.44
2017-04-30T12:16:54.302Z,26.46
2017-04-30T12:17:55.746Z,30.68
2017-04-30T12:18:57.190Z,30.29
2017-04-30T12:19:58.632Z,31.45
2017-04-30T12:21:00.077Z,30.97
2017-04-30T12:22:01.519Z,30.49
2017-04-30T12:23:02.994Z,29.41
2017-04-30T12:24:04.428Z,28.74
2017-04-30T12:25:05.867Z,28.56
2017-04-30T12:26:07.329Z,27.60
2017-04-30T12:27:08.772Z,29.35
2017-04-30T12:28:10.222Z,30.21
2017-04-30T12:29:11.658Z,31.59
2017-04-30T12:30:13.278Z,27.45
2017-04-30T12:31:14.710Z,28.80
2017-04-30T12:32:16.145Z,27.56
2017-04-30T12:33:17.590Z,26.79
2017-04-30T12:34:19.031Z,25.73
2017-04-30T12:35:20.469Z,26.89
2017-04-30T12:36:21.896Z,28.42
2017-04-30T12:37:23.342Z,28.73
2017-04-30T12:38:24.780Z,27.28
2017-04-30T12:39:26.217Z,29.03
2017-04-30T12:40:27.654Z,28.53
2017-04-30T12:41:29.091Z,27.28
2017-04-30T12:42:30.524Z,26.70
2017-04-30T12:43:31.965Z,27.76
2017-04-30T12:44:33.400Z,27.57
2017-04-30T12:45:34.837Z,26.03
2017-04-30T12:46:36.276Z,27.20
2017-04-30T12:47:37.719Z,25.55
2017-04-30T12:48:39.160Z,26.72
2017-04-30T12:49:40.591Z,27.48
2017-04-30T12:50:42.035Z,28.64
2017-04-30T12:51:43.476Z,26.04
2017-04-30T12:52:44.920Z,27.78
2017-04-30T12:53:46.347Z,27.20
2017-04-30T12:54:47.793Z,28.45
2017-04-30T12:55:49.246Z,26.81
2017-04-30T12:56:50.678Z,26.25
2017-04-30T12:57:52.130Z,25.76
2017-04-30T12:58:53.572Z,25.86
2017-04-30T12:59:55.020Z,25.86
2017-04-30T13:00:56.458Z,26.23
2017-04-30T13:01:57.894Z,26.70
2017-04-30T13:02:59.339Z,27.38
2017-04-30T13:04:00.788Z,27.48
2017-04-30T13:05:02.218Z,27.00
2017-04-30T13:06:03.667Z,27.59
2017-04-30T13:07:05.113Z,27.29
2017-04-30T13:08:06.541Z,26.53
2017-04-30T13:09:07.982Z,25.18
2017-04-30T13:10:09.414Z,27.31
2017-04-30T13:11:10.860Z,27.22